sensor_id;sensor_type;location;lat;lon;timestamp;pressure;altitude;pressure_sealevel;temperature;humidity
7930;BME280;4010;42.698;23.124;2022-09-19T00:01:35;118349.16;;;-140.64;100.00
7930;BME280;4010;42.698;23.124;2022-09-19T00:04:04;118349.16;;;-140.64;100.00
7930;BME280;4010;42.698;23.124;2022-09-19T00:06:33;118349.16;;;-140.64;100.00
7930;BME280;4010;42.698;23.124;2022-09-19T00:09:02;118349.16;;;-140.64;100.00
7930;BME280;4010;42.698;23.124;2022-09-19T00:11:30;118349.16;;;-140.64;100.00
7930;BME280;4010;42.698;23.124;2022-09-19T00:13:59;118349.16;;;-140.64;100.00
7930;BME280;4010;42.698;23.124;2022-09-19T00:16:28;118349.16;;;-140.64;100.00
7930;BME280;4010;42.698;23.124;2022-09-19T00:18:56;118349.16;;;-140.64;100.00
7930;BME280;4010;42.698;23.124;2022-09-19T00:21:25;118349.16;;;-140.64;100.00
7930;BME280;4010;42.698;23.124;2022-09-19T00:23:53;118349.16;;;-140.64;100.00
7930;BME280;4010;42.698;23.124;2022-09-19T00:26:51;118349.16;;;-140.64;100.00
7930;BME280;4010;42.698;23.124;2022-09-19T00:29:21;118349.16;;;-140.64;100.00
7930;BME280;4010;42.698;23.124;2022-09-19T00:31:48;118349.16;;;-140.64;100.00
7930;BME280;4010;42.698;23.124;2022-09-19T00:34:17;118349.16;;;-140.64;100.00
7930;BME280;4010;42.698;23.124;2022-09-19T00:36:44;118349.16;;;-140.64;100.00
7930;BME280;4010;42.698;23.124;2022-09-19T00:39:13;118349.16;;;-140.64;100.00
7930;BME280;4010;42.698;23.124;2022-09-19T00:41:40;118349.16;;;-140.64;100.00
7930;BME280;4010;42.698;23.124;2022-09-19T00:47:12;118349.16;;;-140.64;100.00
7930;BME280;4010;42.698;23.124;2022-09-19T00:49:42;118349.16;;;-140.64;100.00
7930;BME280;4010;42.698;23.124;2022-09-19T00:52:14;118349.16;;;-140.64;100.00
7930;BME280;4010;42.698;23.124;2022-09-19T00:54:45;118349.16;;;-140.64;100.00
7930;BME280;4010;42.698;23.124;2022-09-19T00:57:15;118349.16;;;-140.64;100.00
7930;BME280;4010;42.698;23.124;2022-09-19T00:59:45;118349.16;;;-140.64;100.00
7930;BME280;4010;42.698;23.124;2022-09-19T01:02:15;118349.16;;;-140.64;100.00
7930;BME280;4010;42.698;23.124;2022-09-19T01:04:43;118349.16;;;-140.64;100.00
7930;BME280;4010;42.698;23.124;2022-09-19T01:07:15;118349.16;;;-140.64;100.00
7930;BME280;4010;42.698;23.124;2022-09-19T01:09:47;118349.16;;;-140.64;100.00
7930;BME280;4010;42.698;23.124;2022-09-19T01:12:26;118349.16;;;-140.64;100.00
7930;BME280;4010;42.698;23.124;2022-09-19T01:15:08;118349.16;;;-140.64;100.00
7930;BME280;4010;42.698;23.124;2022-09-19T01:17:42;118349.16;;;-140.64;100.00
7930;BME280;4010;42.698;23.124;2022-09-19T01:20:41;118349.16;;;-140.64;100.00
7930;BME280;4010;42.698;23.124;2022-09-19T01:23:27;118349.16;;;-140.64;100.00
7930;BME280;4010;42.698;23.124;2022-09-19T01:26:05;118349.16;;;-140.64;100.00
7930;BME280;4010;42.698;23.124;2022-09-19T01:28:39;118349.16;;;-140.64;100.00
7930;BME280;4010;42.698;23.124;2022-09-19T01:31:12;118349.16;;;-140.64;100.00
7930;BME280;4010;42.698;23.124;2022-09-19T01:33:49;118349.16;;;-140.64;100.00
7930;BME280;4010;42.698;23.124;2022-09-19T01:36:20;118349.16;;;-140.64;100.00
7930;BME280;4010;42.698;23.124;2022-09-19T01:39:02;118349.16;;;-140.64;100.00
7930;BME280;4010;42.698;23.124;2022-09-19T01:41:30;118349.16;;;-140.64;100.00
7930;BME280;4010;42.698;23.124;2022-09-19T01:44:04;118349.16;;;-140.64;100.00
7930;BME280;4010;42.698;23.124;2022-09-19T01:46:40;118349.16;;;-140.64;100.00
7930;BME280;4010;42.698;23.124;2022-09-19T01:49:19;118349.16;;;-140.64;100.00
7930;BME280;4010;42.698;23.124;2022-09-19T01:51:58;118349.16;;;-140.64;100.00
7930;BME280;4010;42.698;23.124;2022-09-19T01:54:41;118349.16;;;-140.64;100.00
7930;BME280;4010;42.698;23.124;2022-09-19T01:57:20;118349.16;;;-140.64;100.00
7930;BME280;4010;42.698;23.124;2022-09-19T02:00:03;118349.16;;;-140.64;100.00
7930;BME280;4010;42.698;23.124;2022-09-19T02:02:38;118349.16;;;-140.64;100.00
7930;BME280;4010;42.698;23.124;2022-09-19T02:05:08;118349.16;;;-140.64;100.00
7930;BME280;4010;42.698;23.124;2022-09-19T02:07:42;118349.16;;;-140.64;100.00
7930;BME280;4010;42.698;23.124;2022-09-19T02:10:17;118349.16;;;-140.64;100.00
7930;BME280;4010;42.698;23.124;2022-09-19T02:12:47;118349.16;;;-140.64;100.00
7930;BME280;4010;42.698;23.124;2022-09-19T02:15:21;118349.16;;;-140.64;100.00
7930;BME280;4010;42.698;23.124;2022-09-19T02:17:55;118349.16;;;-140.64;100.00
7930;BME280;4010;42.698;23.124;2022-09-19T02:20:24;118349.16;;;-140.64;100.00
7930;BME280;4010;42.698;23.124;2022-09-19T02:22:56;118349.16;;;-140.64;100.00
7930;BME280;4010;42.698;23.124;2022-09-19T02:25:28;117377.91;;;-140.64;100.00
7930;BME280;4010;42.698;23.124;2022-09-19T02:28:00;117614.53;;;-140.64;100.00
7930;BME280;4010;42.698;23.124;2022-09-19T02:30:30;117371.72;;;-140.64;100.00
7930;BME280;4010;42.698;23.124;2022-09-19T02:32:58;116511.84;;;-140.64;100.00
7930;BME280;4010;42.698;23.124;2022-09-19T02:35:27;114494.56;;;-140.64;100.00
7930;BME280;4010;42.698;23.124;2022-09-19T02:38:10;114704.25;;;-140.64;100.00
7930;BME280;4010;42.698;23.124;2022-09-19T02:40:47;113875.84;;;-140.64;100.00
7930;BME280;4010;42.698;23.124;2022-09-19T02:43:19;113662.09;;;-140.64;100.00
7930;BME280;4010;42.698;23.124;2022-09-19T02:45:54;112823.66;;;-140.64;100.00
7930;BME280;4010;42.698;23.124;2022-09-19T02:48:27;110194.53;;;-140.64;100.00
7930;BME280;4010;42.698;23.124;2022-09-19T02:50:58;110194.53;;;-140.64;100.00
7930;BME280;4010;42.698;23.124;2022-09-19T02:53:30;109668.94;;;-140.64;100.00
7930;BME280;4010;42.698;23.124;2022-09-19T02:56:01;108880.72;;;-140.64;100.00
7930;BME280;4010;42.698;23.124;2022-09-19T02:58:30;108092.66;;;-140.64;100.00
7930;BME280;4010;42.698;23.124;2022-09-19T03:01:03;107304.78;;;-140.64;100.00
7930;BME280;4010;42.698;23.124;2022-09-19T03:03:35;106517.09;;;-140.64;100.00
7930;BME280;4010;42.698;23.124;2022-09-19T03:06:25;107830.03;;;-140.64;100.00
7930;BME280;4010;42.698;23.124;2022-09-19T03:08:55;108092.66;;;-140.64;100.00
7930;BME280;4010;42.698;23.124;2022-09-19T03:11:24;107567.41;;;-140.64;100.00
7930;BME280;4010;42.698;23.124;2022-09-19T03:13:52;107567.41;;;-140.64;100.00
7930;BME280;4010;42.698;23.124;2022-09-19T03:16:28;105992.06;;;-140.64;100.00
7930;BME280;4010;42.698;23.124;2022-09-19T03:19:01;104679.81;;;-140.64;100.00
7930;BME280;4010;42.698;23.124;2022-09-19T03:21:29;104679.81;;;-140.64;100.00
7930;BME280;4010;42.698;23.124;2022-09-19T03:23:56;105729.59;;;-140.64;100.00
7930;BME280;4010;42.698;23.124;2022-09-19T03:26:26;105729.59;;;-140.64;100.00
7930;BME280;4010;42.698;23.124;2022-09-19T03:28:53;102843.53;;;-140.64;100.00
7930;BME280;4010;42.698;23.124;2022-09-19T03:31:21;102581.28;;;-140.64;100.00
7930;BME280;4010;42.698;23.124;2022-09-19T03:33:49;102319.03;;;-140.64;100.00
7930;BME280;4010;42.698;23.124;2022-09-19T03:36:28;101794.66;;;-140.64;100.00
7930;BME280;4010;42.698;23.124;2022-09-19T03:38:56;102581.28;;;-140.64;100.00
7930;BME280;4010;42.698;23.124;2022-09-19T03:41:28;102581.28;;;-140.64;100.00
7930;BME280;4010;42.698;23.124;2022-09-19T03:43:57;104155.06;;;-140.64;100.00
7930;BME280;4010;42.698;23.124;2022-09-19T03:46:25;105729.59;;;-140.64;100.00
7930;BME280;4010;42.698;23.124;2022-09-19T03:48:53;105467.09;;;-140.64;100.00
7930;BME280;4010;42.698;23.124;2022-09-19T03:51:20;106779.66;;;-140.64;100.00
7930;BME280;4010;42.698;23.124;2022-09-19T03:53:47;106779.66;;;-140.64;100.00
7930;BME280;4010;42.698;23.124;2022-09-19T03:56:14;104155.06;;;-140.64;100.00
7930;BME280;4010;42.698;23.124;2022-09-19T03:58:42;104942.22;;;-140.64;100.00
7930;BME280;4010;42.698;23.124;2022-09-19T04:01:09;103368.09;;;-140.64;100.00
7930;BME280;4010;42.698;23.124;2022-09-19T04:03:38;104679.81;;;-140.64;100.00
7930;BME280;4010;42.698;23.124;2022-09-19T04:06:07;104417.44;;;-140.64;100.00
7930;BME280;4010;42.698;23.124;2022-09-19T04:08:36;101532.47;;;-140.64;100.00
7930;BME280;4010;42.698;23.124;2022-09-19T04:11:03;104417.44;;;-140.64;100.00
7930;BME280;4010;42.698;23.124;2022-09-19T04:13:30;104942.22;;;-140.64;100.00
7930;BME280;4010;42.698;23.124;2022-09-19T04:15:59;104417.44;;;-140.64;100.00
7930;BME280;4010;42.698;23.124;2022-09-19T04:18:27;104155.06;;;-140.64;100.00
7930;BME280;4010;42.698;23.124;2022-09-19T04:20:54;107042.22;;;-140.64;100.00
7930;BME280;4010;42.698;23.124;2022-09-19T04:23:23;107304.78;;;-140.64;100.00
7930;BME280;4010;42.698;23.124;2022-09-19T04:25:50;105729.59;;;-140.64;100.00
7930;BME280;4010;42.698;23.124;2022-09-19T04:28:17;103892.72;;;-140.64;100.00
7930;BME280;4010;42.698;23.124;2022-09-19T04:30:46;103105.78;;;-140.64;100.00
7930;BME280;4010;42.698;23.124;2022-09-19T04:33:14;101532.47;;;-140.64;100.00
7930;BME280;4010;42.698;23.124;2022-09-19T04:35:41;99697.84;;;-140.64;100.00
7930;BME280;4010;42.698;23.124;2022-09-19T04:38:11;97864.16;;;-140.64;100.00
7930;BME280;4010;42.698;23.124;2022-09-19T04:40:40;97078.59;;;-140.64;100.00
7930;BME280;4010;42.698;23.124;2022-09-19T04:43:08;88449.09;;;-140.64;100.00
7930;BME280;4010;42.698;23.124;2022-09-19T04:45:35;68397.19;;;-140.64;100.00
7930;BME280;4010;42.698;23.124;2022-09-19T04:48:03;59580.34;;;-140.64;100.00
7930;BME280;4010;42.698;23.124;2022-09-19T04:50:31;55956.53;;;-140.64;100.00
7930;BME280;4010;42.698;23.124;2022-09-19T04:52:58;72814.16;;;-140.64;100.00
7930;BME280;4010;42.698;23.124;2022-09-19T04:55:25;118349.16;;;-140.64;100.00
7930;BME280;4010;42.698;23.124;2022-09-19T04:57:54;118349.16;;;-140.64;100.00
7930;BME280;4010;42.698;23.124;2022-09-19T05:00:21;118349.16;;;-140.64;100.00
7930;BME280;4010;42.698;23.124;2022-09-19T05:03:17;118349.16;;;-140.64;100.00
7930;BME280;4010;42.698;23.124;2022-09-19T05:05:47;118349.16;;;-140.64;100.00
7930;BME280;4010;42.698;23.124;2022-09-19T05:08:18;118349.16;;;-140.64;98.11
7930;BME280;4010;42.698;23.124;2022-09-19T05:10:52;118349.16;;;-140.64;95.86
7930;BME280;4010;42.698;23.124;2022-09-19T05:13:20;118349.16;;;-140.64;90.22
7930;BME280;4010;42.698;23.124;2022-09-19T05:15:48;118349.16;;;-140.64;88.16
7930;BME280;4010;42.698;23.124;2022-09-19T05:18:16;118349.16;;;-140.64;86.83
7930;BME280;4010;42.698;23.124;2022-09-19T05:20:44;118349.16;;;-140.64;79.67
7930;BME280;4010;42.698;23.124;2022-09-19T05:23:11;118349.16;;;-140.64;74.64
7930;BME280;4010;42.698;23.124;2022-09-19T05:25:40;118349.16;;;-140.64;77.88
7930;BME280;4010;42.698;23.124;2022-09-19T05:28:07;118349.16;;;-140.64;73.55
7930;BME280;4010;42.698;23.124;2022-09-19T05:30:36;118349.16;;;-140.64;80.15
7930;BME280;4010;42.698;23.124;2022-09-19T05:33:04;118349.16;;;-140.64;92.66
7930;BME280;4010;42.698;23.124;2022-09-19T05:35:32;118349.16;;;-140.64;86.99
7930;BME280;4010;42.698;23.124;2022-09-19T05:38:00;118349.16;;;-140.64;95.82
7930;BME280;4010;42.698;23.124;2022-09-19T05:40:27;118349.16;;;-140.64;95.15
7930;BME280;4010;42.698;23.124;2022-09-19T05:42:54;118349.16;;;-140.64;96.56
7930;BME280;4010;42.698;23.124;2022-09-19T05:45:25;118349.16;;;-140.64;100.00
7930;BME280;4010;42.698;23.124;2022-09-19T05:47:58;118349.16;;;-140.64;100.00
7930;BME280;4010;42.698;23.124;2022-09-19T05:50:25;118349.16;;;-140.64;100.00
7930;BME280;4010;42.698;23.124;2022-09-19T05:52:52;118349.16;;;-140.64;100.00
7930;BME280;4010;42.698;23.124;2022-09-19T05:55:38;118349.16;;;-140.64;100.00
7930;BME280;4010;42.698;23.124;2022-09-19T05:58:06;118349.16;;;-140.64;100.00
7930;BME280;4010;42.698;23.124;2022-09-19T06:00:34;118349.16;;;-140.64;100.00
7930;BME280;4010;42.698;23.124;2022-09-19T06:03:04;118349.16;;;-140.64;100.00
7930;BME280;4010;42.698;23.124;2022-09-19T06:05:38;118349.16;;;-140.64;100.00
7930;BME280;4010;42.698;23.124;2022-09-19T06:08:05;118349.16;;;-140.64;100.00
7930;BME280;4010;42.698;23.124;2022-09-19T06:10:35;118349.16;;;-140.64;100.00
7930;BME280;4010;42.698;23.124;2022-09-19T06:13:05;118349.16;;;-140.64;100.00
7930;BME280;4010;42.698;23.124;2022-09-19T06:15:32;118349.16;;;-140.64;100.00
7930;BME280;4010;42.698;23.124;2022-09-19T06:17:59;118349.16;;;-140.64;100.00
7930;BME280;4010;42.698;23.124;2022-09-19T06:20:26;118349.16;;;-140.64;100.00
7930;BME280;4010;42.698;23.124;2022-09-19T06:22:55;118349.16;;;-140.64;100.00
7930;BME280;4010;42.698;23.124;2022-09-19T06:25:23;118349.16;;;-140.64;100.00
7930;BME280;4010;42.698;23.124;2022-09-19T06:27:54;118349.16;;;-140.64;100.00
7930;BME280;4010;42.698;23.124;2022-09-19T06:30:23;118349.16;;;-140.64;100.00
7930;BME280;4010;42.698;23.124;2022-09-19T06:32:50;118349.16;;;-140.64;100.00
7930;BME280;4010;42.698;23.124;2022-09-19T06:35:17;118349.16;;;-140.64;100.00
7930;BME280;4010;42.698;23.124;2022-09-19T06:37:43;118349.16;;;-140.64;100.00
7930;BME280;4010;42.698;23.124;2022-09-19T06:40:11;118349.16;;;-140.64;100.00
7930;BME280;4010;42.698;23.124;2022-09-19T06:42:38;118349.16;;;-140.64;100.00
7930;BME280;4010;42.698;23.124;2022-09-19T06:45:06;118349.16;;;-140.64;100.00
7930;BME280;4010;42.698;23.124;2022-09-19T06:47:34;118349.16;;;-140.64;100.00
7930;BME280;4010;42.698;23.124;2022-09-19T06:50:02;118349.16;;;-140.64;100.00
7930;BME280;4010;42.698;23.124;2022-09-19T06:52:30;118349.16;;;-140.64;100.00
7930;BME280;4010;42.698;23.124;2022-09-19T06:54:56;118349.16;;;-140.64;100.00
7930;BME280;4010;42.698;23.124;2022-09-19T06:57:24;118349.16;;;-140.64;100.00
7930;BME280;4010;42.698;23.124;2022-09-19T06:59:51;118349.16;;;-140.64;100.00
7930;BME280;4010;42.698;23.124;2022-09-19T07:02:17;118349.16;;;-140.64;100.00
7930;BME280;4010;42.698;23.124;2022-09-19T07:04:47;118349.16;;;-140.64;100.00
7930;BME280;4010;42.698;23.124;2022-09-19T07:07:15;118349.16;;;-140.64;100.00
7930;BME280;4010;42.698;23.124;2022-09-19T07:09:42;118349.16;;;-140.64;100.00
7930;BME280;4010;42.698;23.124;2022-09-19T07:12:09;118349.16;;;-140.64;100.00
7930;BME280;4010;42.698;23.124;2022-09-19T07:14:35;118349.16;;;-140.64;100.00
7930;BME280;4010;42.698;23.124;2022-09-19T07:17:03;118349.16;;;-140.64;100.00
7930;BME280;4010;42.698;23.124;2022-09-19T07:19:30;118349.16;;;-140.64;100.00
7930;BME280;4010;42.698;23.124;2022-09-19T07:21:58;118349.16;;;-140.64;100.00
7930;BME280;4010;42.698;23.124;2022-09-19T07:24:25;118349.16;;;-140.64;100.00
7930;BME280;4010;42.698;23.124;2022-09-19T07:26:52;118349.16;;;-140.64;100.00
7930;BME280;4010;42.698;23.124;2022-09-19T07:29:19;118349.16;;;-140.64;100.00
7930;BME280;4010;42.698;23.124;2022-09-19T07:31:46;118349.16;;;-140.64;100.00
7930;BME280;4010;42.698;23.124;2022-09-19T07:34:13;118349.16;;;-140.64;100.00
7930;BME280;4010;42.698;23.124;2022-09-19T07:36:39;118349.16;;;-140.64;100.00
7930;BME280;4010;42.698;23.124;2022-09-19T07:39:08;118349.16;;;-140.64;100.00
7930;BME280;4010;42.698;23.124;2022-09-19T07:41:35;118349.16;;;-140.64;100.00
7930;BME280;4010;42.698;23.124;2022-09-19T07:44:02;118349.16;;;-140.64;100.00
7930;BME280;4010;42.698;23.124;2022-09-19T07:46:29;118349.16;;;-140.64;100.00
7930;BME280;4010;42.698;23.124;2022-09-19T07:48:55;118349.16;;;-140.64;100.00
7930;BME280;4010;42.698;23.124;2022-09-19T07:51:22;118349.16;;;-140.64;100.00
7930;BME280;4010;42.698;23.124;2022-09-19T07:53:49;118349.16;;;-140.64;100.00
7930;BME280;4010;42.698;23.124;2022-09-19T07:56:17;118349.16;;;-140.64;100.00
7930;BME280;4010;42.698;23.124;2022-09-19T07:58:44;118349.16;;;-140.64;100.00
7930;BME280;4010;42.698;23.124;2022-09-19T08:05:02;118349.16;;;-140.64;100.00
7930;BME280;4010;42.698;23.124;2022-09-19T08:07:30;118349.16;;;-140.64;99.94
7930;BME280;4010;42.698;23.124;2022-09-19T08:10:07;118349.16;;;-140.64;100.00
7930;BME280;4010;42.698;23.124;2022-09-19T08:12:36;118349.16;;;-140.64;100.00
7930;BME280;4010;42.698;23.124;2022-09-19T08:15:03;118349.16;;;-140.64;100.00
7930;BME280;4010;42.698;23.124;2022-09-19T08:17:29;118349.16;;;-140.64;96.82
7930;BME280;4010;42.698;23.124;2022-09-19T08:19:56;118349.16;;;-140.64;96.87
7930;BME280;4010;42.698;23.124;2022-09-19T08:22:24;118349.16;;;-140.64;99.16
7930;BME280;4010;42.698;23.124;2022-09-19T08:24:50;118349.16;;;-140.64;98.60
7930;BME280;4010;42.698;23.124;2022-09-19T08:27:17;118349.16;;;-140.64;97.66
7930;BME280;4010;42.698;23.124;2022-09-19T08:29:45;118349.16;;;-140.64;98.93
7930;BME280;4010;42.698;23.124;2022-09-19T08:32:12;118349.16;;;-140.64;99.92
7930;BME280;4010;42.698;23.124;2022-09-19T08:37:39;118349.16;;;-140.64;96.82
7930;BME280;4010;42.698;23.124;2022-09-19T08:40:06;118349.16;;;-140.64;96.91
7930;BME280;4010;42.698;23.124;2022-09-19T08:46:07;118349.16;;;-140.64;93.13
7930;BME280;4010;42.698;23.124;2022-09-19T08:48:52;118349.16;;;-140.64;90.33
7930;BME280;4010;42.698;23.124;2022-09-19T08:51:25;118349.16;;;-140.64;86.19
7930;BME280;4010;42.698;23.124;2022-09-19T08:53:57;118349.16;;;-140.64;92.30
7930;BME280;4010;42.698;23.124;2022-09-19T08:56:25;118349.16;;;-140.64;88.39
7930;BME280;4010;42.698;23.124;2022-09-19T08:58:57;118349.16;;;-140.64;90.63
7930;BME280;4010;42.698;23.124;2022-09-19T09:01:33;118349.16;;;-140.64;85.57
7930;BME280;4010;42.698;23.124;2022-09-19T09:04:14;118349.16;;;-140.64;95.86
7930;BME280;4010;42.698;23.124;2022-09-19T09:06:47;118349.16;;;-140.64;93.57
7930;BME280;4010;42.698;23.124;2022-09-19T09:09:22;118349.16;;;-140.64;84.96
7930;BME280;4010;42.698;23.124;2022-09-19T09:15:19;118349.16;;;-140.64;74.47
7930;BME280;4010;42.698;23.124;2022-09-19T09:17:59;118349.16;;;-140.64;69.44
7930;BME280;4010;42.698;23.124;2022-09-19T09:20:41;118349.16;;;-140.64;84.43
7930;BME280;4010;42.698;23.124;2022-09-19T09:23:15;118349.16;;;-140.64;69.97
7930;BME280;4010;42.698;23.124;2022-09-19T09:25:45;118349.16;;;-140.64;60.96
7930;BME280;4010;42.698;23.124;2022-09-19T09:28:15;118349.16;;;-140.64;51.66
7930;BME280;4010;42.698;23.124;2022-09-19T09:30:48;118349.16;;;-140.64;47.21
7930;BME280;4010;42.698;23.124;2022-09-19T09:33:20;118349.16;;;-140.64;52.62
7930;BME280;4010;42.698;23.124;2022-09-19T09:35:54;118349.16;;;-140.64;50.23
7930;BME280;4010;42.698;23.124;2022-09-19T09:38:28;118349.16;;;-140.64;50.53
7930;BME280;4010;42.698;23.124;2022-09-19T09:41:02;118349.16;;;-140.64;49.67
7930;BME280;4010;42.698;23.124;2022-09-19T09:44:07;118349.16;;;-140.64;48.27
7930;BME280;4010;42.698;23.124;2022-09-19T09:46:51;118349.16;;;-140.64;45.99
7930;BME280;4010;42.698;23.124;2022-09-19T09:49:27;118349.16;;;-140.64;41.18
7930;BME280;4010;42.698;23.124;2022-09-19T09:52:03;118349.16;;;-140.64;46.75
7930;BME280;4010;42.698;23.124;2022-09-19T09:54:44;118349.16;;;-140.64;45.53
7930;BME280;4010;42.698;23.124;2022-09-19T09:57:39;118349.16;;;-140.64;44.50
7930;BME280;4010;42.698;23.124;2022-09-19T10:00:09;118349.16;;;-140.64;46.90
7930;BME280;4010;42.698;23.124;2022-09-19T10:03:01;118349.16;;;-140.64;42.62
7930;BME280;4010;42.698;23.124;2022-09-19T10:05:58;118349.16;;;-140.64;41.41
7930;BME280;4010;42.698;23.124;2022-09-19T10:08:28;118349.16;;;-140.64;39.76
7930;BME280;4010;42.698;23.124;2022-09-19T10:11:01;118349.16;;;-140.64;41.46
7930;BME280;4010;42.698;23.124;2022-09-19T10:13:35;118349.16;;;-140.64;40.79
7930;BME280;4010;42.698;23.124;2022-09-19T10:16:06;118349.16;;;-140.64;40.86
7930;BME280;4010;42.698;23.124;2022-09-19T10:18:41;118349.16;;;-140.64;39.61
7930;BME280;4010;42.698;23.124;2022-09-19T10:21:10;118349.16;;;-140.64;36.75
7930;BME280;4010;42.698;23.124;2022-09-19T10:23:37;118349.16;;;-140.64;38.63
7930;BME280;4010;42.698;23.124;2022-09-19T10:26:06;118349.16;;;-140.64;36.01
7930;BME280;4010;42.698;23.124;2022-09-19T10:28:42;118349.16;;;-140.64;40.44
7930;BME280;4010;42.698;23.124;2022-09-19T10:31:21;118349.16;;;-140.64;36.65
7930;BME280;4010;42.698;23.124;2022-09-19T10:33:49;118349.16;;;-140.64;37.37
7930;BME280;4010;42.698;23.124;2022-09-19T10:36:20;118349.16;;;-140.64;32.90
7930;BME280;4010;42.698;23.124;2022-09-19T10:38:52;118349.16;;;-140.64;35.50
7930;BME280;4010;42.698;23.124;2022-09-19T10:41:25;118349.16;;;-140.64;36.70
7930;BME280;4010;42.698;23.124;2022-09-19T10:43:54;118349.16;;;-140.64;35.65
7930;BME280;4010;42.698;23.124;2022-09-19T10:46:26;118349.16;;;-140.64;34.91
7930;BME280;4010;42.698;23.124;2022-09-19T10:48:57;118349.16;;;-140.64;36.40
7930;BME280;4010;42.698;23.124;2022-09-19T10:51:31;118349.16;;;-140.64;36.06
7930;BME280;4010;42.698;23.124;2022-09-19T10:54:00;118349.16;;;-140.64;36.28
7930;BME280;4010;42.698;23.124;2022-09-19T10:56:34;118349.16;;;-140.64;36.90
7930;BME280;4010;42.698;23.124;2022-09-19T10:59:05;118349.16;;;-140.64;34.23
7930;BME280;4010;42.698;23.124;2022-09-19T11:01:33;118349.16;;;-140.64;31.05
7930;BME280;4010;42.698;23.124;2022-09-19T11:04:02;118349.16;;;-140.64;34.05
7930;BME280;4010;42.698;23.124;2022-09-19T11:06:32;118349.16;;;-140.64;33.58
7930;BME280;4010;42.698;23.124;2022-09-19T11:09:06;118349.16;;;-140.64;33.99
7930;BME280;4010;42.698;23.124;2022-09-19T11:11:48;118349.16;;;-140.64;34.18
7930;BME280;4010;42.698;23.124;2022-09-19T11:14:18;118349.16;;;-140.64;32.41
7930;BME280;4010;42.698;23.124;2022-09-19T11:16:54;118349.16;;;-140.64;32.23
7930;BME280;4010;42.698;23.124;2022-09-19T11:19:31;118349.16;;;-140.64;32.41
7930;BME280;4010;42.698;23.124;2022-09-19T11:22:18;118349.16;;;-140.64;32.94
7930;BME280;4010;42.698;23.124;2022-09-19T11:24:56;118349.16;;;-140.64;32.08
7930;BME280;4010;42.698;23.124;2022-09-19T11:27:43;118349.16;;;-140.64;32.93
7930;BME280;4010;42.698;23.124;2022-09-19T11:30:16;118349.16;;;-140.64;33.09
7930;BME280;4010;42.698;23.124;2022-09-19T11:33:11;118349.16;;;-140.64;32.00
7930;BME280;4010;42.698;23.124;2022-09-19T11:35:48;118349.16;;;-140.64;31.46
7930;BME280;4010;42.698;23.124;2022-09-19T11:38:26;118349.16;;;-140.64;31.90
7930;BME280;4010;42.698;23.124;2022-09-19T11:41:06;118349.16;;;-140.64;31.54
7930;BME280;4010;42.698;23.124;2022-09-19T11:43:47;118349.16;;;-140.64;33.14
7930;BME280;4010;42.698;23.124;2022-09-19T11:46:26;118349.16;;;-140.64;32.90
7930;BME280;4010;42.698;23.124;2022-09-19T11:49:23;118349.16;;;-140.64;31.29
7930;BME280;4010;42.698;23.124;2022-09-19T11:52:02;118349.16;;;-140.64;30.95
7930;BME280;4010;42.698;23.124;2022-09-19T11:54:53;118349.16;;;-140.64;31.40
7930;BME280;4010;42.698;23.124;2022-09-19T11:57:32;118349.16;;;-140.64;32.29
7930;BME280;4010;42.698;23.124;2022-09-19T12:00:12;118349.16;;;-140.64;32.21
7930;BME280;4010;42.698;23.124;2022-09-19T12:05:45;118349.16;;;-140.64;33.14
7930;BME280;4010;42.698;23.124;2022-09-19T12:08:27;118349.16;;;-140.64;33.03
7930;BME280;4010;42.698;23.124;2022-09-19T12:11:03;118349.16;;;-140.64;33.54
7930;BME280;4010;42.698;23.124;2022-09-19T12:13:38;118349.16;;;-140.64;32.85
7930;BME280;4010;42.698;23.124;2022-09-19T12:16:14;118349.16;;;-140.64;34.15
7930;BME280;4010;42.698;23.124;2022-09-19T12:18:45;118349.16;;;-140.64;33.53
7930;BME280;4010;42.698;23.124;2022-09-19T12:21:17;118349.16;;;-140.64;34.54
7930;BME280;4010;42.698;23.124;2022-09-19T12:23:50;118349.16;;;-140.64;33.69
7930;BME280;4010;42.698;23.124;2022-09-19T12:26:45;118349.16;;;-140.64;34.25
7930;BME280;4010;42.698;23.124;2022-09-19T12:29:17;118349.16;;;-140.64;33.28
7930;BME280;4010;42.698;23.124;2022-09-19T12:31:48;118349.16;;;-140.64;34.20
7930;BME280;4010;42.698;23.124;2022-09-19T12:34:26;118349.16;;;-140.64;32.45
7930;BME280;4010;42.698;23.124;2022-09-19T12:37:00;118349.16;;;-140.64;33.30
7930;BME280;4010;42.698;23.124;2022-09-19T12:39:35;118349.16;;;-140.64;34.01
7930;BME280;4010;42.698;23.124;2022-09-19T12:42:08;118349.16;;;-140.64;33.92
7930;BME280;4010;42.698;23.124;2022-09-19T12:44:44;118349.16;;;-140.64;33.33
7930;BME280;4010;42.698;23.124;2022-09-19T12:47:20;118349.16;;;-140.64;34.08
7930;BME280;4010;42.698;23.124;2022-09-19T12:49:55;118349.16;;;-140.64;34.92
7930;BME280;4010;42.698;23.124;2022-09-19T12:52:28;118349.16;;;-140.64;34.41
7930;BME280;4010;42.698;23.124;2022-09-19T12:55:04;118349.16;;;-140.64;34.16
7930;BME280;4010;42.698;23.124;2022-09-19T12:57:44;118349.16;;;-140.64;34.63
7930;BME280;4010;42.698;23.124;2022-09-19T13:00:11;118349.16;;;-140.64;35.33
7930;BME280;4010;42.698;23.124;2022-09-19T13:02:43;118349.16;;;-140.64;35.73
7930;BME280;4010;42.698;23.124;2022-09-19T13:05:13;118349.16;;;-140.64;34.25
7930;BME280;4010;42.698;23.124;2022-09-19T13:07:47;118349.16;;;-140.64;31.91
7930;BME280;4010;42.698;23.124;2022-09-19T13:10:19;118349.16;;;-140.64;34.06
7930;BME280;4010;42.698;23.124;2022-09-19T13:12:53;118349.16;;;-140.64;34.67
7930;BME280;4010;42.698;23.124;2022-09-19T13:15:28;118349.16;;;-140.64;34.85
7930;BME280;4010;42.698;23.124;2022-09-19T13:17:58;118349.16;;;-140.64;35.08
7930;BME280;4010;42.698;23.124;2022-09-19T13:20:44;118349.16;;;-140.64;34.45